AirNav   Bose Proflight Series 2 Wireless Aviation Headset
 
 446 users online  

FA90 Port Canaveral Heliport
Port Canaveral, Florida, USA

GOING TO PORT CANAVERAL?


FAA INFORMATION EFFECTIVE 07 NOVEMBER 2019

Location

FAA Identifier: FA90
Lat/Long: 28-24-18.9200N 080-37-07.2100W
28-24.315333N 080-37.120167W
28.4052556,-80.6186694
(estimated)
Elevation: 10 ft. / 3 m (estimated)
From city: 1 mile N of PORT CANAVERAL, FL
Time zone: UTC -5 (UTC -4 during Daylight Saving Time)
Zip code: 32920

Heliport Operations

Heliport use: Private use. Permission required prior to landing
Activation date: 12/2016
Control tower: no
ARTCC: JACKSONVILLE CENTER
FSS: SAINT PETERSBURG FLIGHT SERVICE STATION
Attendance: 
Segmented circle: no

Heliport Communications

WX AWOS-3 at COI (5 nm SW): 119.025 (321-986-8864)
WX AWOS-3PT at TIX (12 nm NW): 120.625 (321-567-6090)
WX AWOS-3 at X21 (17 nm NW): 119.725 (321-385-0384)
WX ASOS at MLB (18 nm S): PHONE 321-951-7575

Nearby radio navigation aids

VOR radial/distance  VOR name  Freq  Var
MLBr010/18.0MELBOURNE VOR/DME110.0007W
ORLr102/38.7ORLANDO VORTAC112.2000E

Heliport Services

Runway Information

Helipad H1

Dimensions: 40 x 40 ft. / 12 x 12 m
Surface: turf
Traffic pattern: leftleft

Heliport Ownership and Management from official FAA records

Ownership: Privately-owned
Owner: FLORIDA BIPLANES INC
475 MANOR DRIVE HANGAR 5
MERRITT ISLAND, FL 32952
Phone 321-392-4122
Manager: MARK GRAINGER
475 MANOR DRIVE HANGAR 5
MERRITT ISLAND, FL 32952
Phone 321-392-4122

Heliport Operational Statistics

Aircraft based on the field: 1
Helicopters: 1
    

Additional Remarks

FOR CD CTC ORLANDO APCH AT 407-852-7553

Instrument Procedures

There are no published instrument procedures at FA90.

Some nearby airports with instrument procedures:

KXMR - Cape Canaveral Air Force Station Skid Strip (5 nm NE)
KCOI - Merritt Island Airport (5 nm SW)
KCOF - Patrick Air Force Base (10 nm S)
KTIX - Space Coast Regional Airport (12 nm NW)
KTTS - NASA Shuttle Landing Facility (13 nm N)
X21 - Arthur Dunn Air Park (17 nm NW)
KMLB - Melbourne International Airport (18 nm S)
 
Loc | Ops | Rwys | IFR | FBO | Links
Com | Nav | Svcs | Stats | Notes
Aerial photo
No photo
 
Airport distance calculator
Flying to Port Canaveral Heliport? Find the distance to fly.

From to FA90

Sunrise and sunset
Times for 19-Nov-2019
 Local
(UTC-5)
 Zulu
(UTC)
Morning civil twilight06:2411:24
Sunrise06:4911:49
Sunset17:2722:27
Evening civil twilight17:5222:52

Current date and time
Zulu (UTC)  19-Nov-2019 08:29:03
Local (UTC-5)  19-Nov-2019 03:29:03
 
METAR
KXMR 
6nm NE 
190756Z AUTO 27003KT 10SM CLR 14/13 A2986 RMK AO2 SLP115 T01430127 $
KTIX 
11nm NW 
190147Z 00000KT 7SM CLR 14/12 A2986
KCOF 
11nm S 
190756Z AUTO 28008KT 10SM CLR 16/15 A2987 RMK AO2 SLP120 T01560154 $
KTTS 
14nm N 
190756Z AUTO 00000KT 10SM CLR 12/11 A2986 RMK AO2 SLP116 T01180110 FZRANO $
KMLB 
18nm S 
190753Z AUTO 30005KT 10SM CLR 13/12 A2984 RMK AO2 SLP104 T01280117
TAF
KTIX 
11nm NW 
190532Z 1906/2006 27003KT P6SM FEW035 FM191300 28006KT P6SM SCT030 BKN250 FM191600 29013G19KT P6SM FEW040 FM192200 27010KT P6SM FEW040 AMD NOT SKED TIL 191200
KCOF 
11nm S 
190300Z 1903/2009 VRB06KT 9999 FEW025 QNH2985INS BECMG 1913/1914 VRB06KT 9999 FEW025 BKN200 QNH2993INS BECMG 1916/1917 29010G15KT 9999 SCT020 QNH2990INS BECMG 1922/1923 VRB06KT 9999 SKC QNH2995INS TX23/1919Z TN13/1910Z LAST NO AMDS AFT 1905 NEXT 1911
KMLB 
18nm S 
190532Z 1906/2006 27005KT P6SM FEW030 FM191300 28005KT P6SM SCT030 BKN250 FM191600 28013G19KT P6SM FEW040 FM192200 27010KT P6SM FEW040
NOTAMs
Click for the latest NOTAMs
NOTAMs are issued by the DoD/FAA and will open in a separate window not controlled by AirNav.

 

 
 

Would you like to see your business listed on this page?

 If your business provides an interesting product or service to pilots, flight crews, aircraft, or users of the Port Canaveral Heliport, you should consider listing it here.  To start the listing process, click on the button below
 
Add a business
 

Other Pages about Port Canaveral Heliport

Update a link
 
Copyright © AirNav, LLC. All rights reserved. Privacy Policy  Contact